Saint Croix, Virgin Islands
Current Conditions -  °F | °C
As of 7:53 PM on Friday 24 Oct 2014 (Local Time) from TIST Reporting Station
Few Clouds Few Clouds  
Wind Chill: 82°   Ceiling: Unl
Heat Index: 89°   Visibility: 10mi
Dew Point: 75°   Wind: 9mph
Humidity: 79%   Direction: 90°E
Pressure: 29.91"   Gusts: NA
Location:  17.7°N, 64.8°W
Report Text: TIST 242353Z 09008KT 10SM FEW021 28/24 A2991
Loading
Personal Weather Stations






























Interactive Weather Map
Tropical Storm Tracking
New forecast layout! Learn more

10-Day Weather Forecast

Advertisements
Track Severe Weather on mobile